createdAt,value
2017-05-04T00:01:03.717Z,85.40
2017-05-04T00:03:32.641Z,85.40
2017-05-04T00:06:01.505Z,85.30
2017-05-04T00:08:30.409Z,85.90
2017-05-04T00:10:59.292Z,86.20
2017-05-04T00:13:28.180Z,86.20
2017-05-04T00:15:57.118Z,86.10
2017-05-04T00:18:26.741Z,86.10
2017-05-04T00:20:55.629Z,86.00
2017-05-04T00:23:24.552Z,86.10
2017-05-04T00:25:53.444Z,85.40
2017-05-04T00:28:22.329Z,85.50
2017-05-04T00:30:51.342Z,86.30
2017-05-04T00:33:20.233Z,86.10
2017-05-04T00:35:49.122Z,85.80
2017-05-04T00:38:18.033Z,85.00
2017-05-04T00:40:46.917Z,84.80
2017-05-04T00:43:15.806Z,85.00
2017-05-04T00:45:45.078Z,86.00
2017-05-04T00:48:13.966Z,86.20
2017-05-04T00:50:42.850Z,86.30
2017-05-04T00:53:12.060Z,87.10
2017-05-04T00:55:40.947Z,88.00
2017-05-04T00:58:09.828Z,88.10
2017-05-04T01:00:38.755Z,87.90
2017-05-04T01:03:07.636Z,87.80
2017-05-04T01:05:36.521Z,87.60
2017-05-04T01:08:05.432Z,87.00
2017-05-04T01:10:34.320Z,87.30
2017-05-04T01:13:03.199Z,87.50
2017-05-04T01:15:32.200Z,87.30
2017-05-04T01:18:01.081Z,87.00
2017-05-04T01:20:29.966Z,87.10
2017-05-04T01:22:58.979Z,87.00
2017-05-04T01:25:27.860Z,87.10
2017-05-04T01:27:56.744Z,86.80
2017-05-04T01:30:25.935Z,86.50
2017-05-04T01:32:54.813Z,86.50
2017-05-04T01:35:23.692Z,86.60
2017-05-04T01:37:52.601Z,86.60
2017-05-04T01:40:21.490Z,86.30
2017-05-04T01:42:50.376Z,86.40
2017-05-04T01:45:19.285Z,85.70
2017-05-04T01:47:48.174Z,85.30
2017-05-04T01:50:17.182Z,85.90
2017-05-04T01:52:46.069Z,86.00
2017-05-04T01:55:14.955Z,86.10
2017-05-04T01:57:43.865Z,86.10
2017-05-04T02:00:12.748Z,85.90
2017-05-04T02:02:41.633Z,86.60
2017-05-04T02:05:10.811Z,86.60
2017-05-04T02:07:39.692Z,87.30
2017-05-04T02:10:08.577Z,86.90
2017-05-04T02:12:37.713Z,86.60
2017-05-04T02:15:06.592Z,86.10
2017-05-04T02:17:35.468Z,85.70
2017-05-04T02:20:04.377Z,86.00
2017-05-04T02:22:33.257Z,85.50
2017-05-04T02:25:02.182Z,85.80
2017-05-04T02:27:31.060Z,85.50
2017-05-04T02:29:59.947Z,85.70
2017-05-04T02:32:28.961Z,85.20
2017-05-04T02:34:57.841Z,85.40
2017-05-04T02:37:26.729Z,85.60
2017-05-04T02:39:55.734Z,86.00
2017-05-04T02:42:24.608Z,85.20
2017-05-04T02:44:53.490Z,85.00
2017-05-04T02:47:22.396Z,84.70
2017-05-04T02:49:51.274Z,84.50
2017-05-04T02:52:20.160Z,84.40
2017-05-04T02:54:49.446Z,84.40
2017-05-04T02:57:18.325Z,84.10
2017-05-04T02:59:47.209Z,84.90
2017-05-04T03:02:16.213Z,84.70
2017-05-04T03:04:45.093Z,84.80
2017-05-04T03:07:13.977Z,84.40
2017-05-04T03:09:43.195Z,84.40
2017-05-04T03:12:12.071Z,84.70
2017-05-04T03:14:40.953Z,84.80
2017-05-04T03:17:09.965Z,84.80
2017-05-04T03:19:38.849Z,84.80
2017-05-04T03:22:07.729Z,84.60
2017-05-04T03:24:36.727Z,83.80
2017-05-04T03:27:05.605Z,84.10
2017-05-04T03:29:35.229Z,84.10
2017-05-04T03:32:04.441Z,83.60
2017-05-04T03:34:33.320Z,84.00
2017-05-04T03:37:02.204Z,83.70
2017-05-04T03:39:31.117Z,84.50
2017-05-04T03:41:59.989Z,83.60
2017-05-04T03:44:28.868Z,83.70
2017-05-04T03:46:57.868Z,83.90
2017-05-04T03:49:26.791Z,84.10
2017-05-04T03:51:55.674Z,84.00
2017-05-04T03:54:24.575Z,84.10
2017-05-04T03:56:53.447Z,84.20
2017-05-04T03:59:22.320Z,83.90
2017-05-04T04:01:51.226Z,84.30
2017-05-04T04:04:20.121Z,84.10
2017-05-04T04:06:48.988Z,83.80
2017-05-04T04:09:17.901Z,83.90
2017-05-04T04:11:46.774Z,84.30
2017-05-04T04:14:15.662Z,84.60
2017-05-04T04:16:44.664Z,85.40
2017-05-04T04:19:13.540Z,84.80
2017-05-04T04:21:42.424Z,84.70
2017-05-04T04:24:12.173Z,84.90
2017-05-04T04:26:42.128Z,85.20
2017-05-04T04:29:11.082Z,85.30
2017-05-04T04:31:39.984Z,85.00
2017-05-04T04:34:08.861Z,85.40
2017-05-04T04:36:37.860Z,85.50
2017-05-04T04:39:06.745Z,85.30
2017-05-04T04:41:35.616Z,85.50
2017-05-04T04:44:04.828Z,85.80
2017-05-04T04:46:33.713Z,86.10
2017-05-04T04:49:02.597Z,86.10
2017-05-04T04:51:31.809Z,86.10
2017-05-04T04:54:00.695Z,86.10
2017-05-04T04:56:29.577Z,86.00
2017-05-04T04:58:58.588Z,86.60
2017-05-04T05:01:27.468Z,86.50
2017-05-04T05:03:56.359Z,86.70
2017-05-04T05:06:25.485Z,86.90
2017-05-04T05:08:54.380Z,87.20
2017-05-04T05:11:23.256Z,86.70
2017-05-04T05:13:52.176Z,87.10
2017-05-04T05:16:21.061Z,87.30
2017-05-04T05:18:49.948Z,87.30
2017-05-04T05:21:18.957Z,87.90
2017-05-04T05:23:47.845Z,87.60
2017-05-04T05:26:16.729Z,87.70
2017-05-04T05:28:45.741Z,88.00
2017-05-04T05:31:15.371Z,88.00
2017-05-04T05:33:44.250Z,87.60
2017-05-04T05:36:13.164Z,87.90
2017-05-04T05:38:42.049Z,87.00
2017-05-04T05:41:11.161Z,86.60
2017-05-04T05:43:40.048Z,86.00
2017-05-04T05:46:08.944Z,84.90
2017-05-04T05:48:37.994Z,84.40
2017-05-04T05:51:07.620Z,83.80
2017-05-04T05:53:36.505Z,83.30
2017-05-04T05:56:05.831Z,82.90
2017-05-04T05:58:34.716Z,82.70
2017-05-04T06:01:03.610Z,82.40
2017-05-04T06:03:32.625Z,82.70
2017-05-04T06:06:01.509Z,83.30
2017-05-04T06:08:30.406Z,83.40
2017-05-04T06:10:59.421Z,83.40
2017-05-04T06:13:28.301Z,82.90
2017-05-04T06:15:57.188Z,82.50
2017-05-04T06:18:26.209Z,81.60
2017-05-04T06:20:55.086Z,81.60
2017-05-04T06:23:24.012Z,81.00
2017-05-04T06:25:53.109Z,81.10
2017-05-04T06:28:22.725Z,80.90
2017-05-04T06:30:51.644Z,80.40
2017-05-04T06:33:20.651Z,80.30
2017-05-04T06:35:49.544Z,79.40
2017-05-04T06:38:18.423Z,79.00
2017-05-04T06:40:47.443Z,78.40
2017-05-04T06:43:16.322Z,79.80
2017-05-04T06:45:45.216Z,79.80
2017-05-04T06:48:14.154Z,78.20
2017-05-04T06:50:43.033Z,80.90
2017-05-04T06:53:12.660Z,79.20
2017-05-04T06:55:41.573Z,79.20
2017-05-04T06:58:10.491Z,80.20
2017-05-04T07:00:39.506Z,80.70
2017-05-04T07:03:09.125Z,80.40
2017-05-04T07:05:38.749Z,81.00
2017-05-04T07:08:07.661Z,81.30
2017-05-04T07:10:36.548Z,81.60
2017-05-04T07:13:05.436Z,81.30
2017-05-04T07:15:34.636Z,81.60
2017-05-04T07:18:03.516Z,80.40
2017-05-04T07:20:32.415Z,80.20
2017-05-04T07:23:01.424Z,80.90
2017-05-04T07:25:30.309Z,81.80
2017-05-04T07:27:59.201Z,82.40
2017-05-04T07:30:28.122Z,82.70
2017-05-04T07:32:57.008Z,82.70
2017-05-04T07:35:25.893Z,83.20
2017-05-04T07:37:54.884Z,83.40
2017-05-04T07:40:23.768Z,82.90
2017-05-04T07:42:52.653Z,82.50
2017-05-04T07:45:21.560Z,82.40
2017-05-04T07:47:50.444Z,81.90
2017-05-04T07:50:19.328Z,83.00
2017-05-04T07:52:48.240Z,82.60
2017-05-04T07:55:17.124Z,82.30
2017-05-04T07:57:46.006Z,80.80
2017-05-04T08:00:15.022Z,80.60
2017-05-04T08:02:43.912Z,81.60
2017-05-04T08:05:12.791Z,82.30
2017-05-04T08:07:41.906Z,80.70
2017-05-04T08:10:10.826Z,78.00
2017-05-04T08:12:39.712Z,78.90
2017-05-04T08:15:09.673Z,78.00
2017-05-04T08:17:38.556Z,77.20
2017-05-04T08:20:07.444Z,77.30
2017-05-04T08:22:36.633Z,77.90
2017-05-04T08:25:05.509Z,77.30
2017-05-04T08:27:34.393Z,76.80
2017-05-04T08:30:03.408Z,78.20
2017-05-04T08:32:32.293Z,75.60
2017-05-04T08:35:01.177Z,73.70
2017-05-04T08:37:30.092Z,73.50
2017-05-04T08:39:59.456Z,74.20
2017-05-04T08:42:28.468Z,74.60
2017-05-04T08:44:57.353Z,74.40
2017-05-04T08:47:26.236Z,72.00
2017-05-04T08:49:55.257Z,72.20
2017-05-04T08:52:24.141Z,71.70
2017-05-04T08:54:53.029Z,72.10
2017-05-04T08:57:22.042Z,70.60
2017-05-04T08:59:50.925Z,72.00
2017-05-04T09:02:19.809Z,71.00
2017-05-04T09:04:49.001Z,69.10
2017-05-04T09:07:17.881Z,69.20
2017-05-04T09:09:46.764Z,68.00
2017-05-04T09:12:16.084Z,66.90
2017-05-04T09:14:44.961Z,66.20
2017-05-04T09:17:13.849Z,66.30
2017-05-04T09:19:42.758Z,66.10
2017-05-04T09:22:11.643Z,63.30
2017-05-04T09:24:40.520Z,63.70
2017-05-04T09:27:09.423Z,65.20
2017-05-04T09:29:38.316Z,64.00
2017-05-04T09:32:07.437Z,65.60
2017-05-04T09:34:36.325Z,65.10
2017-05-04T09:37:05.202Z,63.00
2017-05-04T09:39:34.124Z,63.90
2017-05-04T09:42:03.006Z,62.10
2017-05-04T09:44:31.889Z,61.60
2017-05-04T09:47:00.894Z,66.40
2017-05-04T09:49:29.767Z,66.60
2017-05-04T09:51:58.640Z,62.00
2017-05-04T09:54:27.843Z,56.60
2017-05-04T09:56:56.704Z,55.80
2017-05-04T09:59:25.578Z,55.60
2017-05-04T10:01:55.620Z,54.30
2017-05-04T10:04:24.497Z,56.00
2017-05-04T10:06:54.117Z,56.10
2017-05-04T10:09:23.027Z,54.30
2017-05-04T10:11:51.893Z,55.30
2017-05-04T10:14:20.765Z,54.50
2017-05-04T10:16:50.489Z,54.90
2017-05-04T10:19:20.101Z,56.40
2017-05-04T10:21:48.981Z,56.90
2017-05-04T10:24:18.722Z,54.90
2017-05-04T10:26:47.588Z,53.50
2017-05-04T10:29:16.466Z,49.80
2017-05-04T10:31:46.210Z,52.50
2017-05-04T10:34:15.098Z,50.90
2017-05-04T10:36:43.961Z,51.40
2017-05-04T10:39:13.597Z,51.80
2017-05-04T10:41:42.473Z,51.60
2017-05-04T10:44:11.341Z,53.60
2017-05-04T10:46:40.981Z,54.30
2017-05-04T10:49:09.864Z,48.20
2017-05-04T10:51:38.733Z,50.00
2017-05-04T10:54:08.685Z,51.30
2017-05-04T10:56:37.557Z,44.70
2017-05-04T10:59:06.429Z,45.50
2017-05-04T11:01:36.179Z,45.20
2017-05-04T11:04:05.313Z,47.10
2017-05-04T11:06:34.195Z,46.30
2017-05-04T11:09:03.197Z,44.50
2017-05-04T11:11:32.070Z,43.60
2017-05-04T11:14:00.941Z,44.20
2017-05-04T11:16:30.339Z,44.10
2017-05-04T11:18:59.208Z,42.00
2017-05-04T11:21:28.085Z,38.60
2017-05-04T11:23:57.838Z,41.50
2017-05-04T11:26:26.720Z,40.90
2017-05-04T11:28:55.584Z,42.60
2017-05-04T11:31:24.709Z,39.50
2017-05-04T11:33:53.601Z,41.30
2017-05-04T11:36:22.473Z,40.90
2017-05-04T11:38:51.375Z,39.70
2017-05-04T11:41:20.245Z,37.50
2017-05-04T11:43:49.893Z,40.00
2017-05-04T11:46:18.766Z,41.20
2017-05-04T11:48:47.637Z,39.70
2017-05-04T11:51:16.628Z,43.30
2017-05-04T11:53:45.505Z,42.10
2017-05-04T11:56:15.120Z,40.10
2017-05-04T11:58:44.774Z,40.40
2017-05-04T12:01:13.949Z,40.40
2017-05-04T12:03:42.866Z,41.20
2017-05-04T12:06:12.165Z,40.80
2017-05-04T12:08:41.046Z,42.70
2017-05-04T12:11:09.921Z,44.20
2017-05-04T12:13:38.817Z,43.40
2017-05-04T12:16:07.707Z,41.50
2017-05-04T12:18:36.572Z,42.80
2017-05-04T12:21:05.577Z,43.20
2017-05-04T12:23:34.454Z,46.10
2017-05-04T12:26:04.069Z,50.10
2017-05-04T12:28:33.072Z,50.00
2017-05-04T12:31:01.949Z,53.20
2017-05-04T12:33:31.572Z,55.90
2017-05-04T12:36:00.481Z,56.10
2017-05-04T12:38:29.357Z,56.90
2017-05-04T12:40:58.236Z,66.40
2017-05-04T12:43:27.350Z,72.00
2017-05-04T12:45:56.221Z,73.50
2017-05-04T12:48:25.097Z,75.90
2017-05-04T12:50:54.840Z,75.00
2017-05-04T12:53:23.720Z,77.00
2017-05-04T12:55:52.589Z,78.10
2017-05-04T12:58:22.329Z,76.90
2017-05-04T13:00:51.201Z,80.90
2017-05-04T13:03:20.068Z,80.70
2017-05-04T13:05:49.718Z,80.20
2017-05-04T13:08:18.584Z,81.30
2017-05-04T13:10:47.468Z,84.50
2017-05-04T13:13:17.209Z,85.60
2017-05-04T13:15:46.097Z,82.60
2017-05-04T13:18:14.970Z,81.00
2017-05-04T13:20:43.982Z,84.10
2017-05-04T13:23:12.860Z,83.30
2017-05-04T13:25:41.741Z,82.20
2017-05-04T13:28:11.396Z,78.50
2017-05-04T13:30:40.273Z,79.30
2017-05-04T13:33:09.152Z,81.30
2017-05-04T13:35:38.052Z,69.80
2017-05-04T13:38:06.929Z,57.30
2017-05-04T13:40:35.808Z,50.20
2017-05-04T13:43:04.813Z,41.20
2017-05-04T13:45:33.685Z,37.70
2017-05-04T13:48:02.577Z,35.70
2017-05-04T13:50:32.310Z,32.30
2017-05-04T13:53:01.186Z,33.00
2017-05-04T13:55:30.064Z,30.10
2017-05-04T13:57:59.709Z,30.90
2017-05-04T14:00:28.581Z,30.00
2017-05-04T14:02:57.452Z,35.30
2017-05-04T14:05:26.533Z,39.20
2017-05-04T14:07:55.409Z,47.30
2017-05-04T14:10:24.326Z,48.30
2017-05-04T14:12:53.940Z,53.80
2017-05-04T14:15:23.552Z,50.60
2017-05-04T14:17:52.454Z,50.30
2017-05-04T14:20:21.328Z,44.70
2017-05-04T14:22:50.205Z,45.10
2017-05-04T14:25:19.946Z,48.40
2017-05-04T14:27:48.816Z,46.40
2017-05-04T14:30:18.433Z,46.30
2017-05-04T14:32:47.666Z,43.90
2017-05-04T14:35:16.544Z,45.80
2017-05-04T14:37:45.420Z,45.90
2017-05-04T14:40:14.325Z,51.10
2017-05-04T14:42:43.207Z,53.10
2017-05-04T14:45:12.130Z,56.70
2017-05-04T14:47:41.249Z,56.20
2017-05-04T14:50:10.118Z,59.20
2017-05-04T14:52:38.997Z,51.90
2017-05-04T14:55:08.177Z,59.80
2017-05-04T14:57:37.046Z,59.40
2017-05-04T15:00:05.924Z,53.20
2017-05-04T15:02:35.979Z,57.50
2017-05-04T15:05:04.849Z,51.50
2017-05-04T15:07:33.820Z,48.40
2017-05-04T15:10:03.465Z,46.10
2017-05-04T15:12:32.337Z,54.40
2017-05-04T15:15:01.213Z,56.40
2017-05-04T15:17:30.856Z,59.60
2017-05-04T15:19:59.841Z,59.50
2017-05-04T15:22:28.757Z,61.60
2017-05-04T15:24:57.632Z,63.70
2017-05-04T15:27:26.507Z,61.70
2017-05-04T15:29:55.522Z,60.00
2017-05-04T15:32:24.398Z,58.70
2017-05-04T15:34:53.281Z,58.30
2017-05-04T15:37:22.486Z,60.20
2017-05-04T15:39:51.361Z,58.80
2017-05-04T15:42:20.236Z,63.10
2017-05-04T15:44:49.888Z,61.10
2017-05-04T15:47:18.773Z,58.60
2017-05-04T15:49:47.646Z,61.20
2017-05-04T15:52:16.933Z,64.70
2017-05-04T15:54:45.817Z,65.60
2017-05-04T15:57:14.703Z,60.70
2017-05-04T15:59:43.913Z,62.00
2017-05-04T16:02:12.804Z,64.10
2017-05-04T16:04:41.676Z,61.50
2017-05-04T16:07:10.572Z,64.70
2017-05-04T16:09:39.476Z,63.10
2017-05-04T16:12:09.064Z,65.30
2017-05-04T16:14:38.057Z,64.80
2017-05-04T16:17:06.928Z,66.60
2017-05-04T16:19:36.561Z,62.00
2017-05-04T16:22:05.461Z,61.60
2017-05-04T16:24:34.337Z,56.20
2017-05-04T16:27:03.209Z,49.00
2017-05-04T16:29:32.949Z,47.00
2017-05-04T16:32:01.821Z,47.00
2017-05-04T16:34:31.441Z,46.80
2017-05-04T16:37:00.449Z,46.90
2017-05-04T16:39:29.316Z,46.60
2017-05-04T16:41:58.195Z,48.60
2017-05-04T16:44:27.836Z,46.60
2017-05-04T16:46:56.712Z,46.40
2017-05-04T16:49:25.585Z,46.30
2017-05-04T16:51:55.224Z,46.70
2017-05-04T16:54:24.092Z,45.90
2017-05-04T16:56:52.968Z,46.30
2017-05-04T16:59:22.713Z,45.90
2017-05-04T17:01:51.588Z,46.40
2017-05-04T17:04:20.476Z,46.70
2017-05-04T17:06:50.515Z,45.40
2017-05-04T17:09:19.392Z,46.70
2017-05-04T17:11:48.265Z,47.10
2017-05-04T17:14:18.012Z,47.00
2017-05-04T17:16:46.900Z,46.40
2017-05-04T17:19:15.786Z,47.10
2017-05-04T17:21:44.903Z,46.10
2017-05-04T17:24:13.783Z,46.40
2017-05-04T17:26:42.657Z,46.20
2017-05-04T17:29:11.655Z,47.00
2017-05-04T17:31:40.528Z,46.70
2017-05-04T17:34:09.412Z,46.90
2017-05-04T17:36:39.149Z,46.60
2017-05-04T17:39:08.021Z,47.30
2017-05-04T17:41:36.901Z,47.10
2017-05-04T17:44:05.808Z,48.50
2017-05-04T17:46:34.681Z,46.50
2017-05-04T17:49:04.321Z,47.10
2017-05-04T17:51:33.317Z,46.70
2017-05-04T17:54:02.192Z,47.10
2017-05-04T17:56:31.069Z,46.80
2017-05-04T17:59:00.289Z,47.30
2017-05-04T18:01:29.167Z,48.20
2017-05-04T18:03:58.043Z,48.10
2017-05-04T18:06:27.269Z,48.00
2017-05-04T18:08:56.141Z,48.60
2017-05-04T18:11:25.021Z,47.70
2017-05-04T18:13:54.965Z,48.00
2017-05-04T18:16:23.840Z,47.90
2017-05-04T18:18:52.726Z,48.50
2017-05-04T18:21:21.733Z,48.50
2017-05-04T18:23:50.609Z,49.30
2017-05-04T18:26:20.247Z,49.90
2017-05-04T18:28:49.144Z,49.90
2017-05-04T18:31:18.018Z,49.10
2017-05-04T18:33:47.032Z,48.70
2017-05-04T18:36:15.911Z,49.20
2017-05-04T18:38:44.780Z,49.80
2017-05-04T18:41:13.784Z,49.50
2017-05-04T18:43:42.662Z,50.90
2017-05-04T18:46:11.536Z,50.50
2017-05-04T18:48:41.185Z,50.60
2017-05-04T18:51:10.375Z,50.60
2017-05-04T18:53:39.250Z,50.80
2017-05-04T18:56:08.121Z,51.40
2017-05-04T18:58:37.762Z,51.20
2017-05-04T19:01:06.641Z,51.90
2017-05-04T19:03:35.844Z,52.00
2017-05-04T19:06:04.719Z,52.10
2017-05-04T19:08:33.593Z,53.00
2017-05-04T19:11:03.233Z,52.30
2017-05-04T19:13:32.106Z,52.70
2017-05-04T19:16:00.981Z,53.20
2017-05-04T19:18:30.933Z,53.90
2017-05-04T19:20:59.808Z,56.30
2017-05-04T19:23:28.685Z,55.70
2017-05-04T19:25:58.429Z,55.70
2017-05-04T19:28:27.301Z,57.80
2017-05-04T19:30:56.183Z,58.60
2017-05-04T19:33:25.821Z,60.60
2017-05-04T19:35:54.696Z,62.80
2017-05-04T19:38:23.904Z,63.10
2017-05-04T19:40:52.789Z,64.60
2017-05-04T19:43:21.673Z,67.30
2017-05-04T19:45:50.677Z,67.10
2017-05-04T19:48:19.559Z,66.90
2017-05-04T19:50:48.433Z,67.60
2017-05-04T19:53:17.353Z,67.90
2017-05-04T19:55:46.238Z,68.90
2017-05-04T19:58:15.117Z,69.10
2017-05-04T20:00:44.122Z,68.30
2017-05-04T20:03:12.993Z,68.80
2017-05-04T20:05:41.869Z,69.30
2017-05-04T20:08:11.512Z,69.70
2017-05-04T20:10:40.397Z,70.10
2017-05-04T20:13:09.269Z,70.90
2017-05-04T20:15:38.494Z,70.80
2017-05-04T20:18:07.372Z,71.20
2017-05-04T20:20:36.249Z,71.60
2017-05-04T20:23:05.172Z,72.00
2017-05-04T20:25:34.049Z,72.70
2017-05-04T20:28:02.928Z,72.80
2017-05-04T20:30:31.832Z,72.60
2017-05-04T20:33:00.718Z,72.80
2017-05-04T20:35:29.909Z,72.80
2017-05-04T20:37:58.798Z,72.40
2017-05-04T20:40:27.674Z,72.30
2017-05-04T20:42:57.416Z,72.40
2017-05-04T20:45:26.289Z,72.40
2017-05-04T20:47:55.168Z,72.70
2017-05-04T20:50:24.392Z,73.70
2017-05-04T20:52:53.285Z,72.70
2017-05-04T20:55:22.169Z,73.30
2017-05-04T20:57:51.129Z,74.20
2017-05-04T21:00:20.747Z,74.10
2017-05-04T21:02:49.674Z,74.20
2017-05-04T21:05:18.633Z,74.70
2017-05-04T21:07:47.512Z,74.80
2017-05-04T21:10:17.208Z,75.60
2017-05-04T21:12:46.096Z,75.70
2017-05-04T21:15:14.989Z,76.30
2017-05-04T21:17:44.087Z,76.10
2017-05-04T21:20:12.965Z,75.70
2017-05-04T21:22:41.846Z,75.40
2017-05-04T21:25:10.806Z,76.50
2017-05-04T21:27:39.674Z,76.40
2017-05-04T21:30:08.582Z,76.20
2017-05-04T21:32:37.490Z,75.30
2017-05-04T21:35:06.369Z,76.00
2017-05-04T21:37:35.653Z,76.30
2017-05-04T21:40:04.537Z,75.90
2017-05-04T21:42:33.413Z,77.20
2017-05-04T21:45:03.067Z,77.20
2017-05-04T21:47:31.960Z,76.60
2017-05-04T21:50:00.825Z,76.30
2017-05-04T21:52:29.735Z,75.70
2017-05-04T21:54:58.616Z,76.60
2017-05-04T21:57:27.494Z,76.70
2017-05-04T21:59:56.402Z,76.60
2017-05-04T22:02:25.279Z,76.60
2017-05-04T22:04:54.168Z,77.20
2017-05-04T22:07:23.085Z,77.80
2017-05-04T22:09:51.963Z,77.50
2017-05-04T22:12:20.832Z,77.60
2017-05-04T22:14:49.756Z,78.00
2017-05-04T22:17:18.633Z,77.60
2017-05-04T22:19:47.506Z,77.40
2017-05-04T22:22:16.514Z,77.40
2017-05-04T22:24:45.390Z,77.50
2017-05-04T22:27:14.265Z,77.30
2017-05-04T22:29:43.909Z,78.00
2017-05-04T22:32:12.916Z,78.10
2017-05-04T22:34:41.797Z,77.80
2017-05-04T22:37:10.679Z,77.50
2017-05-04T22:39:39.579Z,78.00
2017-05-04T22:42:08.457Z,77.90
2017-05-04T22:44:37.332Z,78.10
2017-05-04T22:47:06.232Z,77.80
2017-05-04T22:49:35.142Z,77.90
2017-05-04T22:52:04.029Z,78.40
2017-05-04T22:54:32.932Z,77.60
2017-05-04T22:57:01.809Z,77.50
2017-05-04T22:59:30.688Z,77.80
2017-05-04T23:01:59.605Z,78.30
2017-05-04T23:04:28.472Z,79.10
2017-05-04T23:06:57.352Z,78.60
2017-05-04T23:09:26.266Z,78.40
2017-05-04T23:11:55.150Z,78.40
2017-05-04T23:14:24.026Z,78.00
2017-05-04T23:16:53.029Z,78.40
2017-05-04T23:19:21.900Z,79.20
2017-05-04T23:21:50.784Z,78.70
2017-05-04T23:24:20.531Z,78.60
2017-05-04T23:26:49.471Z,78.90
2017-05-04T23:29:18.389Z,78.90
2017-05-04T23:31:47.556Z,79.80
2017-05-04T23:34:16.440Z,79.60
2017-05-04T23:36:45.315Z,79.50
2017-05-04T23:39:14.321Z,79.30
2017-05-04T23:41:43.202Z,79.50
2017-05-04T23:44:12.090Z,79.60
2017-05-04T23:46:41.089Z,79.60
2017-05-04T23:49:09.964Z,79.60
2017-05-04T23:51:38.845Z,79.60
2017-05-04T23:54:07.858Z,79.60
2017-05-04T23:56:36.732Z,79.30
2017-05-04T23:59:05.609Z,79.70
